Terminal Aerodrome Forecast
Issued by NWS Wilmington, NC

Home | Current Version | Previous Version | Text Only | Print | Product List | Glossary On
Versions: 1 2 3 4 5 6 7 8 9 10 11 12 13 14 15 16 17 18 19
000
FTUS42 KILM 212327
TAFMYR
TAF
KMYR 212327Z 2200/2224 17010KT 1/4SM +RA FG VV002
     FM220300 20011KT 1/4SM FG VCSH OVC001
     FM221200 20008KT 1/4SM FG OVC003
     FM221500 21011KT 4SM SHRA BR SCT003 OVC015
     FM221900 18015G22KT 3SM -SHRA SCT007 OVC015
      AMD LTD TO CLD VIS AND WIND 2204/2211=

USA.gov is the U.S. government's official web portal to all federal, state and local government web resources and services.